sensor_id;sensor_type;location;lat;lon;timestamp;P1;durP1;ratioP1;P2;durP2;ratioP2
61869;SDS011;47810;42.264;23.826;2024-03-22T00:00:33;4.07;;;2.97;;
61869;SDS011;47810;42.264;23.826;2024-03-22T00:03:00;5.60;;;3.65;;
61869;SDS011;47810;42.264;23.826;2024-03-22T00:10:39;6.05;;;4.43;;
61869;SDS011;47810;42.264;23.826;2024-03-22T00:13:07;5.00;;;4.50;;
61869;SDS011;47810;42.264;23.826;2024-03-22T00:15:47;3.63;;;3.28;;
61869;SDS011;47810;42.264;23.826;2024-03-22T00:21:33;3.47;;;3.28;;
61869;SDS011;47810;42.264;23.826;2024-03-22T00:29:20;3.90;;;3.60;;
61869;SDS011;47810;42.264;23.826;2024-03-22T00:31:48;4.70;;;3.65;;
61869;SDS011;47810;42.264;23.826;2024-03-22T00:37:00;9.07;;;5.95;;
61869;SDS011;47810;42.264;23.826;2024-03-22T00:44:49;3.53;;;2.78;;
61869;SDS011;47810;42.264;23.826;2024-03-22T00:47:23;6.75;;;3.05;;
61869;SDS011;47810;42.264;23.826;2024-03-22T00:49:56;4.80;;;2.67;;
61869;SDS011;47810;42.264;23.826;2024-03-22T00:52:28;5.55;;;2.83;;
61869;SDS011;47810;42.264;23.826;2024-03-22T00:54:56;4.72;;;3.28;;
61869;SDS011;47810;42.264;23.826;2024-03-22T01:00:32;5.28;;;3.60;;
61869;SDS011;47810;42.264;23.826;2024-03-22T01:05:51;8.98;;;4.22;;
61869;SDS011;47810;42.264;23.826;2024-03-22T01:08:17;3.28;;;3.00;;
61869;SDS011;47810;42.264;23.826;2024-03-22T01:13:49;3.22;;;2.42;;
61869;SDS011;47810;42.264;23.826;2024-03-22T01:16:18;4.82;;;3.10;;
61869;SDS011;47810;42.264;23.826;2024-03-22T01:18:44;3.70;;;2.80;;
61869;SDS011;47810;42.264;23.826;2024-03-22T01:26:54;7.40;;;4.50;;
61869;SDS011;47810;42.264;23.826;2024-03-22T01:29:35;15.05;;;6.13;;
61869;SDS011;47810;42.264;23.826;2024-03-22T01:32:09;22.33;;;11.40;;
61869;SDS011;47810;42.264;23.826;2024-03-22T01:45:21;11.70;;;5.97;;
61869;SDS011;47810;42.264;23.826;2024-03-22T01:47:53;22.70;;;8.65;;
61869;SDS011;47810;42.264;23.826;2024-03-22T01:53:19;6.80;;;5.72;;
61869;SDS011;47810;42.264;23.826;2024-03-22T01:58:43;5.70;;;2.78;;
61869;SDS011;47810;42.264;23.826;2024-03-22T02:01:11;4.25;;;2.97;;
61869;SDS011;47810;42.264;23.826;2024-03-22T02:03:37;7.03;;;3.08;;
61869;SDS011;47810;42.264;23.826;2024-03-22T02:06:03;4.93;;;4.45;;
61869;SDS011;47810;42.264;23.826;2024-03-22T02:11:21;5.20;;;3.13;;
61869;SDS011;47810;42.264;23.826;2024-03-22T02:17:57;4.63;;;2.15;;
61869;SDS011;47810;42.264;23.826;2024-03-22T02:20:33;2.33;;;1.77;;
61869;SDS011;47810;42.264;23.826;2024-03-22T02:23:01;5.38;;;2.63;;
61869;SDS011;47810;42.264;23.826;2024-03-22T02:25:27;3.17;;;1.92;;
61869;SDS011;47810;42.264;23.826;2024-03-22T02:30:49;4.40;;;2.47;;
61869;SDS011;47810;42.264;23.826;2024-03-22T02:33:26;3.83;;;2.25;;
61869;SDS011;47810;42.264;23.826;2024-03-22T02:35:52;2.65;;;2.45;;
61869;SDS011;47810;42.264;23.826;2024-03-22T02:48:10;5.05;;;2.67;;
61869;SDS011;47810;42.264;23.826;2024-03-22T02:55:45;2.90;;;1.77;;
61869;SDS011;47810;42.264;23.826;2024-03-22T02:58:20;3.28;;;2.97;;
61869;SDS011;47810;42.264;23.826;2024-03-22T03:05:47;3.75;;;3.30;;
61869;SDS011;47810;42.264;23.826;2024-03-22T03:08:20;2.83;;;2.60;;
61869;SDS011;47810;42.264;23.826;2024-03-22T03:10:55;3.67;;;3.25;;
61869;SDS011;47810;42.264;23.826;2024-03-22T03:27:40;0.93;;;0.93;;
61869;SDS011;47810;42.264;23.826;2024-03-22T03:33:21;3.55;;;2.95;;
61869;SDS011;47810;42.264;23.826;2024-03-22T03:35:51;2.63;;;2.25;;
61869;SDS011;47810;42.264;23.826;2024-03-22T03:41:28;11.20;;;6.38;;
61869;SDS011;47810;42.264;23.826;2024-03-22T03:43:59;12.82;;;5.65;;
61869;SDS011;47810;42.264;23.826;2024-03-22T03:46:32;5.95;;;4.30;;
61869;SDS011;47810;42.264;23.826;2024-03-22T03:51:29;2.10;;;2.00;;
61869;SDS011;47810;42.264;23.826;2024-03-22T03:53:56;3.10;;;2.80;;
61869;SDS011;47810;42.264;23.826;2024-03-22T03:56:41;2.33;;;2.13;;
61869;SDS011;47810;42.264;23.826;2024-03-22T03:59:13;2.30;;;2.13;;
61869;SDS011;47810;42.264;23.826;2024-03-22T04:04:41;3.72;;;2.60;;
61869;SDS011;47810;42.264;23.826;2024-03-22T04:07:07;2.38;;;2.10;;
61869;SDS011;47810;42.264;23.826;2024-03-22T04:09:48;12.85;;;7.97;;
61869;SDS011;47810;42.264;23.826;2024-03-22T04:18:58;10.50;;;6.30;;
61869;SDS011;47810;42.264;23.826;2024-03-22T04:24:36;8.05;;;5.35;;
61869;SDS011;47810;42.264;23.826;2024-03-22T04:27:01;6.22;;;4.82;;
61869;SDS011;47810;42.264;23.826;2024-03-22T04:35:03;5.75;;;4.68;;
61869;SDS011;47810;42.264;23.826;2024-03-22T04:40:18;8.57;;;4.50;;
61869;SDS011;47810;42.264;23.826;2024-03-22T04:42:54;8.75;;;6.47;;
61869;SDS011;47810;42.264;23.826;2024-03-22T04:45:21;14.23;;;6.68;;
61869;SDS011;47810;42.264;23.826;2024-03-22T04:50:27;11.48;;;7.47;;
61869;SDS011;47810;42.264;23.826;2024-03-22T04:52:57;17.38;;;7.80;;
61869;SDS011;47810;42.264;23.826;2024-03-22T04:55:32;16.50;;;9.57;;
61869;SDS011;47810;42.264;23.826;2024-03-22T05:00:28;11.32;;;7.03;;
61869;SDS011;47810;42.264;23.826;2024-03-22T05:02:56;25.75;;;9.48;;
61869;SDS011;47810;42.264;23.826;2024-03-22T05:05:22;15.43;;;9.02;;
61869;SDS011;47810;42.264;23.826;2024-03-22T05:07:50;14.00;;;9.40;;
61869;SDS011;47810;42.264;23.826;2024-03-22T05:10:16;21.23;;;13.05;;
61869;SDS011;47810;42.264;23.826;2024-03-22T05:12:47;19.33;;;11.35;;
61869;SDS011;47810;42.264;23.826;2024-03-22T05:17:49;8.48;;;5.97;;
61869;SDS011;47810;42.264;23.826;2024-03-22T05:20:27;17.80;;;8.73;;
61869;SDS011;47810;42.264;23.826;2024-03-22T05:22:54;12.45;;;6.40;;
61869;SDS011;47810;42.264;23.826;2024-03-22T05:25:28;18.83;;;10.32;;
61869;SDS011;47810;42.264;23.826;2024-03-22T05:27:54;11.10;;;8.80;;
61869;SDS011;47810;42.264;23.826;2024-03-22T05:32:56;14.07;;;9.40;;
61869;SDS011;47810;42.264;23.826;2024-03-22T05:40:39;4.70;;;4.30;;
61869;SDS011;47810;42.264;23.826;2024-03-22T05:43:09;5.28;;;4.78;;
61869;SDS011;47810;42.264;23.826;2024-03-22T05:45:36;10.13;;;5.95;;
61869;SDS011;47810;42.264;23.826;2024-03-22T05:53:27;10.57;;;4.95;;
61869;SDS011;47810;42.264;23.826;2024-03-22T05:55:55;6.53;;;4.75;;
61869;SDS011;47810;42.264;23.826;2024-03-22T05:58:22;7.80;;;5.13;;
61869;SDS011;47810;42.264;23.826;2024-03-22T06:00:49;9.15;;;5.38;;
61869;SDS011;47810;42.264;23.826;2024-03-22T06:03:17;11.57;;;6.95;;
61869;SDS011;47810;42.264;23.826;2024-03-22T06:05:44;7.97;;;5.28;;
61869;SDS011;47810;42.264;23.826;2024-03-22T06:13:16;11.98;;;6.70;;
61869;SDS011;47810;42.264;23.826;2024-03-22T06:18:19;4.65;;;4.07;;
61869;SDS011;47810;42.264;23.826;2024-03-22T06:20:46;10.38;;;5.40;;
61869;SDS011;47810;42.264;23.826;2024-03-22T06:23:17;7.25;;;5.43;;
61869;SDS011;47810;42.264;23.826;2024-03-22T06:25:53;5.85;;;4.55;;
61869;SDS011;47810;42.264;23.826;2024-03-22T06:28:19;7.70;;;3.78;;
61869;SDS011;47810;42.264;23.826;2024-03-22T06:30:45;8.30;;;4.88;;
61869;SDS011;47810;42.264;23.826;2024-03-22T06:33:21;4.75;;;3.83;;
61869;SDS011;47810;42.264;23.826;2024-03-22T06:38:16;8.38;;;4.30;;
61869;SDS011;47810;42.264;23.826;2024-03-22T06:40:42;8.60;;;3.92;;
61869;SDS011;47810;42.264;23.826;2024-03-22T06:43:08;4.20;;;3.05;;
61869;SDS011;47810;42.264;23.826;2024-03-22T06:45:36;5.78;;;4.30;;
61869;SDS011;47810;42.264;23.826;2024-03-22T06:48:04;4.40;;;3.30;;
61869;SDS011;47810;42.264;23.826;2024-03-22T06:50:30;5.18;;;3.35;;
61869;SDS011;47810;42.264;23.826;2024-03-22T06:52:56;5.50;;;3.13;;
61869;SDS011;47810;42.264;23.826;2024-03-22T06:55:22;5.82;;;3.92;;
61869;SDS011;47810;42.264;23.826;2024-03-22T07:00:40;4.43;;;3.22;;
61869;SDS011;47810;42.264;23.826;2024-03-22T07:03:06;6.05;;;3.58;;
61869;SDS011;47810;42.264;23.826;2024-03-22T07:05:32;6.40;;;4.43;;
61869;SDS011;47810;42.264;23.826;2024-03-22T07:07:59;4.55;;;3.85;;
61869;SDS011;47810;42.264;23.826;2024-03-22T07:10:25;3.00;;;2.58;;
61869;SDS011;47810;42.264;23.826;2024-03-22T07:16:29;5.18;;;3.05;;
61869;SDS011;47810;42.264;23.826;2024-03-22T07:19:27;3.33;;;3.03;;
61869;SDS011;47810;42.264;23.826;2024-03-22T07:21:56;3.88;;;3.45;;
61869;SDS011;47810;42.264;23.826;2024-03-22T07:26:56;4.95;;;3.28;;
61869;SDS011;47810;42.264;23.826;2024-03-22T07:29:23;7.55;;;3.95;;
61869;SDS011;47810;42.264;23.826;2024-03-22T07:31:50;5.97;;;3.58;;
61869;SDS011;47810;42.264;23.826;2024-03-22T07:34:18;3.42;;;2.60;;
61869;SDS011;47810;42.264;23.826;2024-03-22T07:36:50;3.17;;;2.75;;
61869;SDS011;47810;42.264;23.826;2024-03-22T07:39:22;5.38;;;3.22;;
61869;SDS011;47810;42.264;23.826;2024-03-22T07:41:55;15.65;;;8.63;;
61869;SDS011;47810;42.264;23.826;2024-03-22T07:44:29;11.30;;;5.88;;
61869;SDS011;47810;42.264;23.826;2024-03-22T07:47:03;10.52;;;5.45;;
61869;SDS011;47810;42.264;23.826;2024-03-22T07:49:38;3.95;;;3.08;;
61869;SDS011;47810;42.264;23.826;2024-03-22T07:54:38;13.52;;;8.77;;
61869;SDS011;47810;42.264;23.826;2024-03-22T07:57:05;10.00;;;5.85;;
61869;SDS011;47810;42.264;23.826;2024-03-22T07:59:33;4.47;;;2.90;;
61869;SDS011;47810;42.264;23.826;2024-03-22T08:02:09;5.00;;;3.50;;
61869;SDS011;47810;42.264;23.826;2024-03-22T08:07:06;3.65;;;3.25;;
61869;SDS011;47810;42.264;23.826;2024-03-22T08:09:33;14.35;;;7.13;;
61869;SDS011;47810;42.264;23.826;2024-03-22T08:12:01;6.00;;;3.88;;
61869;SDS011;47810;42.264;23.826;2024-03-22T08:16:58;443.42;;;405.90;;
61869;SDS011;47810;42.264;23.826;2024-03-22T08:19:24;467.45;;;436.10;;
61869;SDS011;47810;42.264;23.826;2024-03-22T08:21:59;390.35;;;363.88;;
61869;SDS011;47810;42.264;23.826;2024-03-22T08:24:40;408.45;;;372.73;;
61869;SDS011;47810;42.264;23.826;2024-03-22T08:38:12;384.08;;;283.00;;
61869;SDS011;47810;42.264;23.826;2024-03-22T08:40:53;1999.90;;;999.90;;
61869;SDS011;47810;42.264;23.826;2024-03-22T08:43:25;408.13;;;309.50;;
61869;SDS011;47810;42.264;23.826;2024-03-22T08:48:38;404.88;;;360.77;;
61869;SDS011;47810;42.264;23.826;2024-03-22T08:56:59;40.88;;;37.95;;
61869;SDS011;47810;42.264;23.826;2024-03-22T08:59:32;18.13;;;17.25;;
61869;SDS011;47810;42.264;23.826;2024-03-22T09:04:34;165.85;;;151.38;;
61869;SDS011;47810;42.264;23.826;2024-03-22T09:07:00;3.90;;;2.60;;
61869;SDS011;47810;42.264;23.826;2024-03-22T09:09:38;4.20;;;3.80;;
61869;SDS011;47810;42.264;23.826;2024-03-22T09:12:16;59.80;;;57.03;;
61869;SDS011;47810;42.264;23.826;2024-03-22T09:21:27;26.55;;;25.15;;
61869;SDS011;47810;42.264;23.826;2024-03-22T09:26:31;14.57;;;13.57;;
61869;SDS011;47810;42.264;23.826;2024-03-22T09:29:03;42.40;;;40.30;;
61869;SDS011;47810;42.264;23.826;2024-03-22T09:36:39;263.90;;;238.45;;
61869;SDS011;47810;42.264;23.826;2024-03-22T09:39:11;284.75;;;272.17;;
61869;SDS011;47810;42.264;23.826;2024-03-22T09:41:42;704.92;;;671.30;;
61869;SDS011;47810;42.264;23.826;2024-03-22T09:49:20;1999.90;;;999.90;;
61869;SDS011;47810;42.264;23.826;2024-03-22T09:51:48;286.52;;;266.98;;
61869;SDS011;47810;42.264;23.826;2024-03-22T09:54:17;1568.40;;;812.88;;
61869;SDS011;47810;42.264;23.826;2024-03-22T10:01:47;1999.90;;;999.90;;
61869;SDS011;47810;42.264;23.826;2024-03-22T10:04:32;1999.90;;;999.90;;
61869;SDS011;47810;42.264;23.826;2024-03-22T10:07:04;1999.90;;;999.90;;
61869;SDS011;47810;42.264;23.826;2024-03-22T10:09:32;1999.90;;;999.90;;
61869;SDS011;47810;42.264;23.826;2024-03-22T10:17:07;1999.90;;;999.90;;
61869;SDS011;47810;42.264;23.826;2024-03-22T10:19:48;1999.90;;;999.90;;
61869;SDS011;47810;42.264;23.826;2024-03-22T10:22:18;1999.90;;;999.90;;
61869;SDS011;47810;42.264;23.826;2024-03-22T10:30:29;1999.90;;;999.90;;
61869;SDS011;47810;42.264;23.826;2024-03-22T10:32:58;1536.40;;;783.63;;
61869;SDS011;47810;42.264;23.826;2024-03-22T10:35:42;1999.90;;;999.90;;
61869;SDS011;47810;42.264;23.826;2024-03-22T10:40:52;1213.88;;;702.28;;
61869;SDS011;47810;42.264;23.826;2024-03-22T10:43:20;946.08;;;656.97;;
61869;SDS011;47810;42.264;23.826;2024-03-22T10:48:30;1210.82;;;701.10;;
61869;SDS011;47810;42.264;23.826;2024-03-22T10:53:40;651.65;;;611.30;;
61869;SDS011;47810;42.264;23.826;2024-03-22T10:56:11;738.35;;;691.97;;
61869;SDS011;47810;42.264;23.826;2024-03-22T10:58:41;684.45;;;650.05;;
61869;SDS011;47810;42.264;23.826;2024-03-22T11:01:21;1999.90;;;999.90;;
61869;SDS011;47810;42.264;23.826;2024-03-22T11:13:03;780.85;;;718.17;;
61869;SDS011;47810;42.264;23.826;2024-03-22T11:15:32;1999.90;;;999.90;;
61869;SDS011;47810;42.264;23.826;2024-03-22T11:18:03;1321.00;;;803.05;;
61869;SDS011;47810;42.264;23.826;2024-03-22T11:23:09;1999.90;;;999.90;;
61869;SDS011;47810;42.264;23.826;2024-03-22T11:25:40;402.15;;;381.13;;
61869;SDS011;47810;42.264;23.826;2024-03-22T11:28:08;1291.65;;;778.30;;
61869;SDS011;47810;42.264;23.826;2024-03-22T11:30:36;1291.25;;;774.58;;
61869;SDS011;47810;42.264;23.826;2024-03-22T11:33:17;759.95;;;495.88;;
61869;SDS011;47810;42.264;23.826;2024-03-22T11:35:45;447.60;;;422.35;;
61869;SDS011;47810;42.264;23.826;2024-03-22T11:38:11;595.30;;;561.97;;
61869;SDS011;47810;42.264;23.826;2024-03-22T11:40:56;1347.72;;;828.63;;
61869;SDS011;47810;42.264;23.826;2024-03-22T11:43:28;1290.50;;;775.45;;
61869;SDS011;47810;42.264;23.826;2024-03-22T11:45:57;748.30;;;696.30;;
61869;SDS011;47810;42.264;23.826;2024-03-22T11:48:29;837.78;;;791.03;;
61869;SDS011;47810;42.264;23.826;2024-03-22T11:53:35;557.05;;;523.08;;
61869;SDS011;47810;42.264;23.826;2024-03-22T11:58:40;512.72;;;487.45;;
61869;SDS011;47810;42.264;23.826;2024-03-22T12:01:08;162.60;;;149.93;;
61869;SDS011;47810;42.264;23.826;2024-03-22T12:03:35;20.95;;;20.02;;
61869;SDS011;47810;42.264;23.826;2024-03-22T12:06:03;4.43;;;2.72;;
61869;SDS011;47810;42.264;23.826;2024-03-22T12:08:29;3.50;;;3.25;;
61869;SDS011;47810;42.264;23.826;2024-03-22T12:13:51;4.38;;;4.10;;
61869;SDS011;47810;42.264;23.826;2024-03-22T12:16:23;7.07;;;6.60;;
61869;SDS011;47810;42.264;23.826;2024-03-22T12:26:32;2.80;;;2.60;;
61869;SDS011;47810;42.264;23.826;2024-03-22T12:29:00;3.78;;;3.20;;
61869;SDS011;47810;42.264;23.826;2024-03-22T12:34:10;3.88;;;3.53;;
61869;SDS011;47810;42.264;23.826;2024-03-22T12:39:16;2.08;;;1.67;;
61869;SDS011;47810;42.264;23.826;2024-03-22T12:44:12;4.53;;;2.00;;
61869;SDS011;47810;42.264;23.826;2024-03-22T12:49:23;2.33;;;1.80;;
61869;SDS011;47810;42.264;23.826;2024-03-22T12:54:28;5.35;;;2.08;;
61869;SDS011;47810;42.264;23.826;2024-03-22T12:59:31;2.30;;;2.08;;
61869;SDS011;47810;42.264;23.826;2024-03-22T13:02:03;8.27;;;7.75;;
61869;SDS011;47810;42.264;23.826;2024-03-22T13:07:07;3.45;;;1.90;;
61869;SDS011;47810;42.264;23.826;2024-03-22T13:09:40;20.35;;;12.63;;
61869;SDS011;47810;42.264;23.826;2024-03-22T13:14:44;42.70;;;40.92;;
61869;SDS011;47810;42.264;23.826;2024-03-22T13:17:13;102.47;;;99.15;;
61869;SDS011;47810;42.264;23.826;2024-03-22T13:19:43;20.98;;;19.98;;
61869;SDS011;47810;42.264;23.826;2024-03-22T13:22:12;5.65;;;5.25;;
61869;SDS011;47810;42.264;23.826;2024-03-22T13:29:57;52.45;;;50.88;;
61869;SDS011;47810;42.264;23.826;2024-03-22T13:32:25;129.20;;;123.82;;
61869;SDS011;47810;42.264;23.826;2024-03-22T13:35:02;249.60;;;238.10;;
61869;SDS011;47810;42.264;23.826;2024-03-22T13:37:46;193.13;;;181.82;;
61869;SDS011;47810;42.264;23.826;2024-03-22T13:40:12;30.10;;;28.05;;
61869;SDS011;47810;42.264;23.826;2024-03-22T13:42:39;93.05;;;89.00;;
61869;SDS011;47810;42.264;23.826;2024-03-22T13:47:44;77.05;;;73.93;;
61869;SDS011;47810;42.264;23.826;2024-03-22T13:50:15;43.00;;;41.13;;
61869;SDS011;47810;42.264;23.826;2024-03-22T13:52:46;6.43;;;6.05;;
61869;SDS011;47810;42.264;23.826;2024-03-22T13:55:19;2.47;;;1.95;;
61869;SDS011;47810;42.264;23.826;2024-03-22T14:02:56;37.30;;;34.92;;
61869;SDS011;47810;42.264;23.826;2024-03-22T14:05:28;9.20;;;8.63;;
61869;SDS011;47810;42.264;23.826;2024-03-22T14:08:00;14.63;;;14.00;;
61869;SDS011;47810;42.264;23.826;2024-03-22T14:10:33;5.15;;;4.55;;
61869;SDS011;47810;42.264;23.826;2024-03-22T14:13:01;11.82;;;5.00;;
61869;SDS011;47810;42.264;23.826;2024-03-22T14:18:11;3.35;;;2.53;;
61869;SDS011;47810;42.264;23.826;2024-03-22T14:20:41;7.22;;;5.93;;
61869;SDS011;47810;42.264;23.826;2024-03-22T14:25:48;6.72;;;3.58;;
61869;SDS011;47810;42.264;23.826;2024-03-22T14:28:19;5.75;;;3.90;;
61869;SDS011;47810;42.264;23.826;2024-03-22T14:30:51;2.63;;;1.65;;
61869;SDS011;47810;42.264;23.826;2024-03-22T14:33:23;2.63;;;1.77;;
61869;SDS011;47810;42.264;23.826;2024-03-22T14:35:55;6.65;;;2.65;;
61869;SDS011;47810;42.264;23.826;2024-03-22T14:38:21;4.25;;;3.55;;
61869;SDS011;47810;42.264;23.826;2024-03-22T14:40:54;3.45;;;1.83;;
61869;SDS011;47810;42.264;23.826;2024-03-22T14:43:24;1.83;;;1.70;;
61869;SDS011;47810;42.264;23.826;2024-03-22T14:46:06;4.38;;;1.65;;
61869;SDS011;47810;42.264;23.826;2024-03-22T14:48:33;8.85;;;6.25;;
61869;SDS011;47810;42.264;23.826;2024-03-22T14:53:42;3.53;;;1.70;;
61869;SDS011;47810;42.264;23.826;2024-03-22T15:02:02;3.40;;;1.58;;
61869;SDS011;47810;42.264;23.826;2024-03-22T15:04:35;2.38;;;1.77;;
61869;SDS011;47810;42.264;23.826;2024-03-22T15:10:09;2.22;;;2.03;;
61869;SDS011;47810;42.264;23.826;2024-03-22T15:12:43;6.07;;;3.15;;
61869;SDS011;47810;42.264;23.826;2024-03-22T15:15:26;10.65;;;4.28;;
61869;SDS011;47810;42.264;23.826;2024-03-22T15:25:03;4.25;;;2.97;;
61869;SDS011;47810;42.264;23.826;2024-03-22T15:30:47;8.20;;;4.68;;
61869;SDS011;47810;42.264;23.826;2024-03-22T15:33:28;12.80;;;7.00;;
61869;SDS011;47810;42.264;23.826;2024-03-22T15:35:55;36.67;;;16.40;;
61869;SDS011;47810;42.264;23.826;2024-03-22T15:41:41;5.75;;;3.97;;
61869;SDS011;47810;42.264;23.826;2024-03-22T15:47:01;5.95;;;3.92;;
61869;SDS011;47810;42.264;23.826;2024-03-22T15:49:35;5.40;;;4.43;;
61869;SDS011;47810;42.264;23.826;2024-03-22T15:52:04;7.00;;;5.85;;
61869;SDS011;47810;42.264;23.826;2024-03-22T15:54:37;9.77;;;5.70;;
61869;SDS011;47810;42.264;23.826;2024-03-22T15:57:10;9.18;;;4.15;;
61869;SDS011;47810;42.264;23.826;2024-03-22T16:03:01;8.98;;;4.85;;
61869;SDS011;47810;42.264;23.826;2024-03-22T16:08:10;12.35;;;9.15;;
61869;SDS011;47810;42.264;23.826;2024-03-22T16:13:07;36.50;;;33.10;;
61869;SDS011;47810;42.264;23.826;2024-03-22T16:15:34;33.63;;;31.10;;
61869;SDS011;47810;42.264;23.826;2024-03-22T16:26:32;88.57;;;80.28;;
61869;SDS011;47810;42.264;23.826;2024-03-22T16:28:58;170.80;;;162.88;;
61869;SDS011;47810;42.264;23.826;2024-03-22T16:34:39;241.52;;;226.63;;
61869;SDS011;47810;42.264;23.826;2024-03-22T16:39:53;243.80;;;227.70;;
61869;SDS011;47810;42.264;23.826;2024-03-22T16:42:20;97.97;;;92.53;;
61869;SDS011;47810;42.264;23.826;2024-03-22T16:44:51;241.13;;;232.68;;
61869;SDS011;47810;42.264;23.826;2024-03-22T16:47:17;67.40;;;62.22;;
61869;SDS011;47810;42.264;23.826;2024-03-22T16:55:28;166.38;;;155.20;;
61869;SDS011;47810;42.264;23.826;2024-03-22T16:57:56;341.92;;;326.77;;
61869;SDS011;47810;42.264;23.826;2024-03-22T17:00:36;277.20;;;263.40;;
61869;SDS011;47810;42.264;23.826;2024-03-22T17:03:10;299.85;;;283.23;;
61869;SDS011;47810;42.264;23.826;2024-03-22T17:08:15;173.93;;;154.00;;
61869;SDS011;47810;42.264;23.826;2024-03-22T17:10:47;249.48;;;229.10;;
61869;SDS011;47810;42.264;23.826;2024-03-22T17:13:20;269.67;;;246.05;;
61869;SDS011;47810;42.264;23.826;2024-03-22T17:15:53;321.50;;;300.85;;
61869;SDS011;47810;42.264;23.826;2024-03-22T17:18:25;70.60;;;62.00;;
61869;SDS011;47810;42.264;23.826;2024-03-22T17:21:00;293.17;;;278.88;;
61869;SDS011;47810;42.264;23.826;2024-03-22T17:23:27;318.63;;;291.02;;
61869;SDS011;47810;42.264;23.826;2024-03-22T17:26:03;657.47;;;397.90;;
61869;SDS011;47810;42.264;23.826;2024-03-22T17:31:02;407.45;;;385.35;;
61869;SDS011;47810;42.264;23.826;2024-03-22T17:33:30;346.58;;;321.15;;
61869;SDS011;47810;42.264;23.826;2024-03-22T17:36:11;480.67;;;453.02;;
61869;SDS011;47810;42.264;23.826;2024-03-22T17:38:44;271.33;;;256.95;;
61869;SDS011;47810;42.264;23.826;2024-03-22T17:41:19;456.40;;;431.50;;
61869;SDS011;47810;42.264;23.826;2024-03-22T17:43:50;444.10;;;422.48;;
61869;SDS011;47810;42.264;23.826;2024-03-22T17:46:20;507.10;;;485.90;;
61869;SDS011;47810;42.264;23.826;2024-03-22T17:48:54;447.83;;;426.15;;
61869;SDS011;47810;42.264;23.826;2024-03-22T17:51:28;445.17;;;422.13;;
61869;SDS011;47810;42.264;23.826;2024-03-22T17:53:57;852.67;;;584.40;;
61869;SDS011;47810;42.264;23.826;2024-03-22T17:56:31;260.20;;;245.00;;
61869;SDS011;47810;42.264;23.826;2024-03-22T17:59:03;429.75;;;400.92;;
61869;SDS011;47810;42.264;23.826;2024-03-22T18:01:38;344.30;;;321.73;;
61869;SDS011;47810;42.264;23.826;2024-03-22T18:04:08;356.63;;;325.70;;
61869;SDS011;47810;42.264;23.826;2024-03-22T18:09:07;400.30;;;366.38;;
61869;SDS011;47810;42.264;23.826;2024-03-22T18:11:42;345.05;;;330.42;;
61869;SDS011;47810;42.264;23.826;2024-03-22T18:19:24;470.70;;;440.45;;
61869;SDS011;47810;42.264;23.826;2024-03-22T18:21:58;443.15;;;423.88;;
61869;SDS011;47810;42.264;23.826;2024-03-22T18:24:31;591.53;;;558.53;;
61869;SDS011;47810;42.264;23.826;2024-03-22T18:29:35;934.15;;;667.63;;
61869;SDS011;47810;42.264;23.826;2024-03-22T18:32:07;523.58;;;503.42;;
61869;SDS011;47810;42.264;23.826;2024-03-22T18:34:41;480.80;;;450.42;;
61869;SDS011;47810;42.264;23.826;2024-03-22T18:37:12;1999.90;;;999.90;;
61869;SDS011;47810;42.264;23.826;2024-03-22T18:39:45;429.25;;;407.35;;
61869;SDS011;47810;42.264;23.826;2024-03-22T18:42:17;486.95;;;471.02;;
61869;SDS011;47810;42.264;23.826;2024-03-22T18:47:22;545.88;;;522.22;;
61869;SDS011;47810;42.264;23.826;2024-03-22T18:49:53;484.10;;;463.50;;
61869;SDS011;47810;42.264;23.826;2024-03-22T18:52:28;268.60;;;254.82;;
61869;SDS011;47810;42.264;23.826;2024-03-22T18:55:02;486.95;;;462.92;;
61869;SDS011;47810;42.264;23.826;2024-03-22T18:57:31;341.75;;;329.45;;
61869;SDS011;47810;42.264;23.826;2024-03-22T19:00:06;434.70;;;415.58;;
61869;SDS011;47810;42.264;23.826;2024-03-22T19:02:39;499.05;;;475.75;;
61869;SDS011;47810;42.264;23.826;2024-03-22T19:05:06;575.47;;;550.25;;
61869;SDS011;47810;42.264;23.826;2024-03-22T19:07:40;641.63;;;604.63;;
61869;SDS011;47810;42.264;23.826;2024-03-22T19:10:06;571.47;;;548.33;;
61869;SDS011;47810;42.264;23.826;2024-03-22T19:12:34;637.90;;;612.55;;
61869;SDS011;47810;42.264;23.826;2024-03-22T19:15:13;551.47;;;526.20;;
61869;SDS011;47810;42.264;23.826;2024-03-22T19:17:54;484.42;;;463.52;;
61869;SDS011;47810;42.264;23.826;2024-03-22T19:20:22;576.95;;;553.75;;
61869;SDS011;47810;42.264;23.826;2024-03-22T19:22:59;551.28;;;525.97;;
61869;SDS011;47810;42.264;23.826;2024-03-22T19:25:32;572.00;;;539.67;;
61869;SDS011;47810;42.264;23.826;2024-03-22T19:28:05;694.30;;;664.05;;
61869;SDS011;47810;42.264;23.826;2024-03-22T19:30:37;510.33;;;485.65;;
61869;SDS011;47810;42.264;23.826;2024-03-22T19:35:42;647.63;;;620.13;;
61869;SDS011;47810;42.264;23.826;2024-03-22T19:38:15;584.15;;;562.25;;
61869;SDS011;47810;42.264;23.826;2024-03-22T19:40:44;485.25;;;469.50;;
61869;SDS011;47810;42.264;23.826;2024-03-22T19:43:20;645.30;;;617.15;;
61869;SDS011;47810;42.264;23.826;2024-03-22T19:45:52;737.80;;;697.40;;
61869;SDS011;47810;42.264;23.826;2024-03-22T19:50:51;619.15;;;594.85;;
61869;SDS011;47810;42.264;23.826;2024-03-22T19:53:29;749.03;;;710.83;;
61869;SDS011;47810;42.264;23.826;2024-03-22T19:58:34;781.75;;;742.25;;
61869;SDS011;47810;42.264;23.826;2024-03-22T20:01:07;712.58;;;677.17;;
61869;SDS011;47810;42.264;23.826;2024-03-22T20:06:12;561.95;;;539.22;;
61869;SDS011;47810;42.264;23.826;2024-03-22T20:08:39;618.38;;;589.25;;
61869;SDS011;47810;42.264;23.826;2024-03-22T20:11:05;623.45;;;594.65;;
61869;SDS011;47810;42.264;23.826;2024-03-22T20:18:54;563.17;;;535.63;;
61869;SDS011;47810;42.264;23.826;2024-03-22T20:21:22;568.05;;;544.67;;
61869;SDS011;47810;42.264;23.826;2024-03-22T20:23:55;602.40;;;573.83;;
61869;SDS011;47810;42.264;23.826;2024-03-22T20:26:21;659.25;;;626.33;;
